createdAt,value
2023-02-28T00:00:52.681Z,9.747450
2023-02-28T00:01:52.694Z,9.747511
2023-02-28T00:02:52.692Z,9.747373
2023-02-28T00:03:52.658Z,9.747549
2023-02-28T00:04:52.670Z,9.747415
2023-02-28T00:05:52.641Z,9.747458
2023-02-28T00:06:52.677Z,9.747486
2023-02-28T00:07:52.644Z,9.747489
2023-02-28T00:08:52.680Z,9.747424
2023-02-28T00:09:52.637Z,9.747391
2023-02-28T00:10:52.612Z,9.747476
2023-02-28T00:11:52.607Z,9.747431
2023-02-28T00:12:52.623Z,9.747425
2023-02-28T00:13:52.618Z,9.747463
2023-02-28T00:14:52.588Z,9.747425
2023-02-28T00:15:52.590Z,9.747632
2023-02-28T00:16:52.625Z,9.747552
2023-02-28T00:17:52.585Z,9.747536
2023-02-28T00:18:52.598Z,9.747532
2023-02-28T00:19:52.559Z,9.747530
2023-02-28T00:20:52.559Z,9.747387
2023-02-28T00:21:52.551Z,9.747375
2023-02-28T00:22:52.543Z,9.747411
2023-02-28T00:23:52.554Z,9.747482
2023-02-28T00:24:52.516Z,9.747338
2023-02-28T00:25:52.586Z,9.747508
2023-02-28T00:26:52.504Z,9.747460
2023-02-28T00:27:52.509Z,9.747372
2023-02-28T00:28:52.505Z,9.747407
2023-02-28T00:29:52.479Z,9.747418
2023-02-28T00:30:52.542Z,9.747355
2023-02-28T00:31:52.501Z,9.747400
2023-02-28T00:32:53.261Z,9.747452
2023-02-28T00:33:52.485Z,9.747334
2023-02-28T00:34:52.458Z,9.747314
2023-02-28T00:35:52.478Z,9.747424
2023-02-28T00:36:52.425Z,9.747383
2023-02-28T00:37:52.419Z,9.747461
2023-02-28T00:38:52.463Z,9.747341
2023-02-28T00:39:52.410Z,9.747385
2023-02-28T00:40:52.407Z,9.747439
2023-02-28T00:41:52.392Z,9.747411
2023-02-28T00:42:52.399Z,9.747427
2023-02-28T00:43:52.402Z,9.747475
2023-02-28T00:44:52.369Z,9.747325
2023-02-28T00:45:52.398Z,9.747322
2023-02-28T00:46:52.361Z,9.747416
2023-02-28T00:47:52.342Z,9.747294
2023-02-28T00:48:52.366Z,9.747297
2023-02-28T00:49:52.328Z,9.747410
2023-02-28T00:50:52.317Z,9.747332
2023-02-28T00:51:52.317Z,9.747507
2023-02-28T00:52:52.314Z,9.747560
2023-02-28T00:53:52.329Z,9.747378
2023-02-28T00:54:52.323Z,9.747355
2023-02-28T00:55:52.362Z,9.747404
2023-02-28T00:56:52.315Z,9.747400
2023-02-28T00:57:52.319Z,9.747389
2023-02-28T00:58:52.306Z,9.747384
2023-02-28T00:59:52.268Z,9.747531
2023-02-28T01:00:53.244Z,9.747474
2023-02-28T01:01:52.410Z,9.747472
2023-02-28T01:02:52.287Z,9.747492
2023-02-28T01:03:52.280Z,9.747460
2023-02-28T01:04:52.307Z,9.747369
2023-02-28T01:05:52.223Z,9.747352
2023-02-28T01:06:52.210Z,9.747374
2023-02-28T01:07:52.195Z,9.747472
2023-02-28T01:08:52.218Z,9.747524
2023-02-28T01:09:52.197Z,9.747313
2023-02-28T01:10:52.195Z,9.747490
2023-02-28T01:11:52.187Z,9.747794
2023-02-28T01:12:52.157Z,9.747340
2023-02-28T01:13:52.210Z,9.747391
2023-02-28T01:14:52.149Z,9.747425
2023-02-28T01:15:52.229Z,9.746726
2023-02-28T01:16:52.141Z,9.747102
2023-02-28T01:17:52.129Z,9.747102
2023-02-28T01:18:52.155Z,9.747260
2023-02-28T01:19:52.117Z,9.746806
2023-02-28T01:20:52.124Z,9.747246
2023-02-28T01:21:52.101Z,9.747586
2023-02-28T01:22:52.097Z,9.747374
2023-02-28T01:23:52.115Z,9.747432
2023-02-28T01:24:52.073Z,9.747480
2023-02-28T01:25:52.085Z,9.747499
2023-02-28T01:26:52.066Z,9.747725
2023-02-28T01:27:52.062Z,9.747752
2023-02-28T01:28:52.076Z,9.747511
2023-02-28T01:29:52.048Z,9.747465
2023-02-28T01:30:52.319Z,9.747989
2023-02-28T01:31:52.096Z,9.748160
2023-02-28T01:32:53.025Z,9.747693
2023-02-28T01:33:52.041Z,9.747585
2023-02-28T01:34:52.007Z,9.747547
2023-02-28T01:35:52.037Z,9.747409
2023-02-28T01:36:51.998Z,9.747375
2023-02-28T01:37:52.013Z,9.747423
2023-02-28T01:38:52.017Z,9.747366
2023-02-28T01:39:51.969Z,9.747462
2023-02-28T01:40:52.038Z,9.747537
2023-02-28T01:41:51.957Z,9.747545
2023-02-28T01:42:51.958Z,9.747518
2023-02-28T01:43:51.965Z,9.747402
2023-02-28T01:44:51.928Z,9.747477
2023-02-28T01:45:51.936Z,9.747432
2023-02-28T01:46:51.946Z,9.747211
2023-02-28T01:47:51.912Z,9.747380
2023-02-28T01:48:51.940Z,9.747336
2023-02-28T01:49:51.899Z,9.747338
2023-02-28T01:50:51.916Z,9.747187
2023-02-28T01:51:52.054Z,9.747289
2023-02-28T01:52:51.882Z,9.747417
2023-02-28T01:53:51.887Z,9.747340
2023-02-28T01:54:51.856Z,9.747364
2023-02-28T01:55:51.849Z,9.747426
2023-02-28T01:56:51.853Z,9.747330
2023-02-28T01:57:51.833Z,9.747282
2023-02-28T01:58:51.837Z,9.747324
2023-02-28T01:59:51.854Z,9.747316
2023-02-28T02:00:51.810Z,9.747409
2023-02-28T02:01:51.850Z,9.747452
2023-02-28T02:02:51.851Z,9.747550
2023-02-28T02:03:51.782Z,9.747548
2023-02-28T02:04:51.800Z,9.747393
2023-02-28T02:05:51.770Z,9.747368
2023-02-28T02:06:51.784Z,9.747357
2023-02-28T02:07:51.764Z,9.747455
2023-02-28T02:08:51.759Z,9.747394
2023-02-28T02:09:51.788Z,9.747413
2023-02-28T02:10:51.744Z,9.747430
2023-02-28T02:11:51.751Z,9.747353
2023-02-28T02:12:51.731Z,9.747478
2023-02-28T02:13:51.754Z,9.747479
2023-02-28T02:14:51.742Z,9.747419
2023-02-28T02:15:51.823Z,9.747354
2023-02-28T02:16:51.720Z,9.747396
2023-02-28T02:17:51.696Z,9.747368
2023-02-28T02:18:51.692Z,9.747384
2023-02-28T02:19:51.702Z,9.747334
2023-02-28T02:20:51.714Z,9.747360
2023-02-28T02:21:51.665Z,9.747419
2023-02-28T02:22:51.658Z,9.747450
2023-02-28T02:23:51.663Z,9.747223
2023-02-28T02:24:51.676Z,9.747360
2023-02-28T02:25:51.636Z,9.747297
2023-02-28T02:26:51.645Z,9.747169
2023-02-28T02:27:51.635Z,9.747301
2023-02-28T02:28:51.617Z,9.747366
2023-02-28T02:29:51.645Z,9.747398
2023-02-28T02:30:51.606Z,9.747382
2023-02-28T02:31:51.707Z,9.747352
2023-02-28T02:32:51.620Z,9.747452
2023-02-28T02:33:51.583Z,9.747441
2023-02-28T02:34:51.599Z,9.747444
2023-02-28T02:35:51.605Z,9.747467
2023-02-28T02:36:51.561Z,9.747426
2023-02-28T02:37:51.545Z,9.747511
2023-02-28T02:38:52.553Z,9.747361
2023-02-28T02:39:51.565Z,9.747367
2023-02-28T02:40:51.531Z,9.747410
2023-02-28T02:41:51.542Z,9.747419
2023-02-28T02:42:51.521Z,9.747332
2023-02-28T02:43:51.504Z,9.747415
2023-02-28T02:44:51.541Z,9.747485
2023-02-28T02:45:51.520Z,9.747428
2023-02-28T02:46:51.549Z,9.747496
2023-02-28T02:47:51.483Z,9.747468
2023-02-28T02:48:51.470Z,9.747424
2023-02-28T02:49:51.491Z,9.747509
2023-02-28T02:50:51.451Z,9.747440
2023-02-28T02:51:51.451Z,9.747404
2023-02-28T02:52:51.443Z,9.747390
2023-02-28T02:53:51.439Z,9.747365
2023-02-28T02:54:51.450Z,9.747463
2023-02-28T02:55:52.426Z,9.747464
2023-02-28T02:56:51.422Z,9.747469
2023-02-28T02:57:51.416Z,9.747358
2023-02-28T02:58:51.408Z,9.747341
2023-02-28T02:59:51.418Z,9.747353
2023-02-28T03:00:51.477Z,9.747450
2023-02-28T03:01:51.386Z,9.747458
2023-02-28T03:02:51.392Z,9.747448
2023-02-28T03:03:51.465Z,9.747423
2023-02-28T03:04:51.383Z,9.747419
2023-02-28T03:05:51.381Z,9.747420
2023-02-28T03:06:51.342Z,9.747556
2023-02-28T03:07:51.348Z,9.747487
2023-02-28T03:08:51.344Z,9.747441
2023-02-28T03:09:51.366Z,9.747428
2023-02-28T03:10:51.327Z,9.747402
2023-02-28T03:11:51.319Z,9.747427
2023-02-28T03:12:51.303Z,9.747469
2023-02-28T03:13:51.296Z,9.747426
2023-02-28T03:14:51.317Z,9.747524
2023-02-28T03:15:51.271Z,9.747396
2023-02-28T03:16:52.345Z,9.747244
2023-02-28T03:17:51.269Z,9.747371
2023-02-28T03:18:51.250Z,9.747205
2023-02-28T03:19:51.323Z,9.747361
2023-02-28T03:20:51.268Z,9.747377
2023-02-28T03:21:51.271Z,9.747309
2023-02-28T03:22:52.676Z,9.747408
2023-02-28T03:23:51.248Z,9.747397
2023-02-28T03:24:52.252Z,9.747285
2023-02-28T03:25:51.220Z,9.747381
2023-02-28T03:26:51.194Z,9.747532
2023-02-28T03:27:51.202Z,9.747499
2023-02-28T03:28:51.769Z,9.747582
2023-02-28T03:29:51.200Z,9.747353
2023-02-28T03:30:51.204Z,9.747434
2023-02-28T03:31:51.324Z,9.747306
2023-02-28T03:32:51.193Z,9.747433
2023-02-28T03:33:51.215Z,9.747497
2023-02-28T03:34:51.144Z,9.747341
2023-02-28T03:35:51.212Z,9.747289
2023-02-28T03:36:51.251Z,9.747355
2023-02-28T03:37:51.123Z,9.747371
2023-02-28T03:38:51.113Z,9.747417
2023-02-28T03:39:51.113Z,9.747316
2023-02-28T03:40:51.130Z,9.747345
2023-02-28T03:41:51.145Z,9.747391
2023-02-28T03:42:51.085Z,9.747437
2023-02-28T03:43:51.086Z,9.747477
2023-02-28T03:44:51.086Z,9.747431
2023-02-28T03:45:51.112Z,9.747458
2023-02-28T03:46:51.055Z,9.747525
2023-02-28T03:47:51.053Z,9.747396
2023-02-28T03:48:51.045Z,9.747355
2023-02-28T03:49:51.041Z,9.747543
2023-02-28T03:50:51.052Z,9.747604
2023-02-28T03:51:51.012Z,9.747337
2023-02-28T03:52:51.034Z,9.747357
2023-02-28T03:53:51.011Z,9.747297
2023-02-28T03:54:51.042Z,9.747377
2023-02-28T03:55:51.011Z,9.747278
2023-02-28T03:56:50.976Z,9.747212
2023-02-28T03:57:50.974Z,9.747420
2023-02-28T03:58:50.992Z,9.747364
2023-02-28T03:59:50.962Z,9.747410
2023-02-28T04:00:50.975Z,9.747499
2023-02-28T04:01:50.987Z,9.747495
2023-02-28T04:02:50.940Z,9.747499
2023-02-28T04:03:50.930Z,9.747359
2023-02-28T04:04:51.020Z,9.747416
2023-02-28T04:05:50.956Z,9.747426
2023-02-28T04:06:51.641Z,9.747420
2023-02-28T04:07:51.893Z,9.747243
2023-02-28T04:08:50.896Z,9.747195
2023-02-28T04:09:50.883Z,9.747454
2023-02-28T04:10:50.932Z,9.747482
2023-02-28T04:11:50.872Z,9.747455
2023-02-28T04:12:50.868Z,9.747474
2023-02-28T04:13:50.855Z,9.747518
2023-02-28T04:14:50.867Z,9.747514
2023-02-28T04:15:50.881Z,9.747617
2023-02-28T04:16:50.832Z,9.747340
2023-02-28T04:17:50.827Z,9.747355
2023-02-28T04:18:50.827Z,9.747417
2023-02-28T04:19:51.808Z,9.747251
2023-02-28T04:20:50.842Z,9.747357
2023-02-28T04:21:50.796Z,9.747322
2023-02-28T04:22:50.792Z,9.747359
2023-02-28T04:23:50.780Z,9.747530
2023-02-28T04:24:50.778Z,9.747452
2023-02-28T04:25:50.793Z,9.747403
2023-02-28T04:26:50.765Z,9.747476
2023-02-28T04:27:50.750Z,9.747504
2023-02-28T04:28:50.744Z,9.747468
2023-02-28T04:29:50.746Z,9.747351
2023-02-28T04:30:50.759Z,9.747369
2023-02-28T04:31:50.827Z,9.747331
2023-02-28T04:32:50.718Z,9.747407
2023-02-28T04:33:50.718Z,9.747355
2023-02-28T04:34:50.704Z,9.747345
2023-02-28T04:35:50.733Z,9.747355
2023-02-28T04:36:59.638Z,9.747322
2023-02-28T04:37:52.676Z,9.747299
2023-02-28T04:38:50.675Z,9.747478
2023-02-28T04:39:50.671Z,9.747356
2023-02-28T04:40:50.697Z,9.747425
2023-02-28T04:41:50.671Z,9.747437
2023-02-28T04:42:50.650Z,9.747375
2023-02-28T04:43:50.638Z,9.747433
2023-02-28T04:44:50.630Z,9.747743
2023-02-28T04:45:50.678Z,9.747510
2023-02-28T04:46:50.610Z,9.747341
2023-02-28T04:47:50.610Z,9.747421
2023-02-28T04:48:50.609Z,9.747293
2023-02-28T04:49:50.596Z,9.747366
2023-02-28T04:50:50.607Z,9.747444
2023-02-28T04:51:50.572Z,9.747351
2023-02-28T04:52:50.573Z,9.747313
2023-02-28T04:53:50.563Z,9.747381
2023-02-28T04:54:50.559Z,9.747281
2023-02-28T04:55:50.573Z,9.747272
2023-02-28T04:56:50.554Z,9.747252
2023-02-28T04:57:50.534Z,9.747224
2023-02-28T04:58:50.533Z,9.747242
2023-02-28T04:59:50.525Z,9.747182
2023-02-28T05:00:50.548Z,9.747282
2023-02-28T05:01:50.512Z,9.747291
2023-02-28T05:02:50.506Z,9.747362
2023-02-28T05:03:50.489Z,9.747425
2023-02-28T05:04:50.588Z,9.747336
2023-02-28T05:05:50.535Z,9.747311
2023-02-28T05:06:50.478Z,9.747361
2023-02-28T05:07:50.464Z,9.747339
2023-02-28T05:08:50.452Z,9.747287
2023-02-28T05:09:50.461Z,9.747345
2023-02-28T05:10:50.440Z,9.747326
2023-02-28T05:11:50.493Z,9.747406
2023-02-28T05:12:50.445Z,9.747451
2023-02-28T05:13:50.425Z,9.747437
2023-02-28T05:14:50.423Z,9.747478
2023-02-28T05:15:50.448Z,9.747513
2023-02-28T05:16:50.435Z,9.747577
2023-02-28T05:17:50.476Z,9.747527
2023-02-28T05:18:50.420Z,9.747412
2023-02-28T05:19:50.375Z,9.747355
2023-02-28T05:20:50.367Z,9.747332
2023-02-28T05:21:50.394Z,9.747385
2023-02-28T05:22:50.392Z,9.747391
2023-02-28T05:23:50.365Z,9.747339
2023-02-28T05:24:50.346Z,9.747373
2023-02-28T05:25:50.331Z,9.747347
2023-02-28T05:26:50.356Z,9.747379
2023-02-28T05:27:50.348Z,9.747442
2023-02-28T05:28:50.373Z,9.747366
2023-02-28T05:29:50.306Z,9.747402
2023-02-28T05:30:50.309Z,9.747585
2023-02-28T05:31:50.422Z,9.747566
2023-02-28T05:32:50.284Z,9.747668
2023-02-28T05:33:50.283Z,9.747433
2023-02-28T05:34:50.290Z,9.747286
2023-02-28T05:35:50.332Z,9.747305
2023-02-28T05:36:50.288Z,9.747090
2023-02-28T05:37:50.263Z,9.746987
2023-02-28T05:38:50.249Z,9.747266
2023-02-28T05:39:50.235Z,9.747337
2023-02-28T05:40:50.225Z,9.747473
2023-02-28T05:41:50.263Z,9.747390
2023-02-28T05:42:50.212Z,9.747250
2023-02-28T05:43:50.224Z,9.747164
2023-02-28T05:44:50.213Z,9.747282
2023-02-28T05:45:50.215Z,9.747330
2023-02-28T05:46:50.212Z,9.747376
2023-02-28T05:47:50.175Z,9.747393
2023-02-28T05:48:50.330Z,9.747396
2023-02-28T05:49:50.157Z,9.747292
2023-02-28T05:50:50.154Z,9.747418
2023-02-28T05:51:50.244Z,9.747328
2023-02-28T05:52:50.136Z,9.747340
2023-02-28T05:53:50.140Z,9.747370
2023-02-28T05:54:50.117Z,9.747336
2023-02-28T05:55:50.118Z,9.747436
2023-02-28T05:56:50.133Z,9.747506
2023-02-28T05:57:50.106Z,9.747351
2023-02-28T05:58:50.149Z,9.747486
2023-02-28T05:59:50.099Z,9.747380
2023-02-28T06:00:50.080Z,9.747311
2023-02-28T06:01:50.107Z,9.747240
2023-02-28T06:02:50.062Z,9.747429
2023-02-28T06:03:50.051Z,9.747356
2023-02-28T06:04:50.041Z,9.747282
2023-02-28T06:05:50.055Z,9.747319
2023-02-28T06:06:50.070Z,9.747406
2023-02-28T06:07:50.052Z,9.747300
2023-02-28T06:08:50.013Z,9.747349
2023-02-28T06:09:50.032Z,9.747333
2023-02-28T06:10:50.011Z,9.747423
2023-02-28T06:11:50.032Z,9.747407
2023-02-28T06:12:49.990Z,9.747340
2023-02-28T06:13:50.043Z,9.747150
2023-02-28T06:14:49.990Z,9.747116
2023-02-28T06:15:49.974Z,9.747190
2023-02-28T06:16:50.051Z,9.747383
2023-02-28T06:17:49.984Z,9.747371
2023-02-28T06:18:49.982Z,9.747434
2023-02-28T06:19:49.948Z,9.747457
2023-02-28T06:20:49.930Z,9.747368
2023-02-28T06:21:49.929Z,9.747397
2023-02-28T06:22:49.932Z,9.747401
2023-02-28T06:23:50.913Z,9.747334
2023-02-28T06:24:49.907Z,9.747319
2023-02-28T06:25:49.887Z,9.747254
2023-02-28T06:26:49.894Z,9.747499
2023-02-28T06:27:49.909Z,9.747249
2023-02-28T06:28:49.873Z,9.747443
2023-02-28T06:29:49.875Z,9.747370
2023-02-28T06:30:49.900Z,9.747420
2023-02-28T06:31:50.754Z,9.747255
2023-02-28T06:32:49.872Z,9.747356
2023-02-28T06:33:49.844Z,9.747460
2023-02-28T06:34:49.842Z,9.747481
2023-02-28T06:35:49.964Z,9.747568
2023-02-28T06:36:49.820Z,9.747489
2023-02-28T06:37:49.850Z,9.747409
2023-02-28T06:38:49.801Z,9.747340
2023-02-28T06:39:49.795Z,9.747363
2023-02-28T06:40:49.805Z,9.747411
2023-02-28T06:41:55.186Z,9.747419
2023-02-28T06:42:51.828Z,9.747477
2023-02-28T06:43:49.764Z,9.747332
2023-02-28T06:44:49.757Z,9.747455
2023-02-28T06:45:49.963Z,9.747654
2023-02-28T06:46:49.761Z,9.747444
2023-02-28T06:47:49.830Z,9.747345
2023-02-28T06:48:49.732Z,9.747416
2023-02-28T06:49:49.729Z,9.747274
2023-02-28T06:50:49.722Z,9.747288
2023-02-28T06:51:49.731Z,9.747315
2023-02-28T06:52:49.732Z,9.747432
2023-02-28T06:53:49.716Z,9.747550
2023-02-28T06:54:49.713Z,9.747451
2023-02-28T06:55:49.684Z,9.747446
2023-02-28T06:56:49.695Z,9.747436
2023-02-28T06:57:49.699Z,9.747525
2023-02-28T06:58:49.667Z,9.747278
2023-02-28T06:59:49.660Z,9.747437
2023-02-28T07:00:49.654Z,9.747355
2023-02-28T07:01:49.683Z,9.747418
2023-02-28T07:02:49.665Z,9.747363
2023-02-28T07:03:49.629Z,9.747322
2023-02-28T07:04:49.660Z,9.747263
2023-02-28T07:05:49.616Z,9.747321
2023-02-28T07:06:49.602Z,9.747409
2023-02-28T07:07:49.644Z,9.747581
2023-02-28T07:08:49.685Z,9.747328
2023-02-28T07:09:49.597Z,9.747391
2023-02-28T07:10:49.576Z,9.747466
2023-02-28T07:11:49.573Z,9.747416
2023-02-28T07:12:50.589Z,9.747266
2023-02-28T07:13:49.550Z,9.747271
2023-02-28T07:14:49.554Z,9.747161
2023-02-28T07:15:49.573Z,9.747262
2023-02-28T07:16:49.589Z,9.747227
2023-02-28T07:17:49.575Z,9.747266
2023-02-28T07:18:49.559Z,9.747411
2023-02-28T07:19:49.507Z,9.747332
2023-02-28T07:20:49.539Z,9.747313
2023-02-28T07:21:49.486Z,9.747429
2023-02-28T07:22:49.513Z,9.747488
2023-02-28T07:23:49.595Z,9.747448
2023-02-28T07:24:49.469Z,9.747475
2023-02-28T07:25:49.466Z,9.747353
2023-02-28T07:26:49.544Z,9.747333
2023-02-28T07:27:49.471Z,9.747375
2023-02-28T07:28:49.419Z,9.747334
2023-02-28T07:29:50.424Z,9.747510
2023-02-28T07:30:49.470Z,9.747346
2023-02-28T07:31:49.461Z,9.747494
2023-02-28T07:32:49.438Z,9.747754
2023-02-28T07:33:50.291Z,9.747632
2023-02-28T07:34:49.392Z,9.747582
2023-02-28T07:35:49.443Z,9.747476
2023-02-28T07:36:49.377Z,9.747535
2023-02-28T07:37:49.405Z,9.747504
2023-02-28T07:38:50.354Z,9.747564
2023-02-28T07:39:49.378Z,9.747590
2023-02-28T07:40:50.342Z,9.747386
2023-02-28T07:41:49.340Z,9.747690
2023-02-28T07:42:49.334Z,9.747589
2023-02-28T07:43:49.343Z,9.747637
2023-02-28T07:44:49.313Z,9.747713
2023-02-28T07:45:49.315Z,9.747777
2023-02-28T07:46:49.382Z,9.747558
2023-02-28T07:47:49.301Z,9.747693
2023-02-28T07:48:49.309Z,9.747725
2023-02-28T07:49:49.278Z,9.747569
2023-02-28T07:50:49.270Z,9.747467
2023-02-28T07:51:49.270Z,9.747560
2023-02-28T07:52:49.255Z,9.747526
2023-02-28T07:53:49.276Z,9.747459
2023-02-28T07:54:49.258Z,9.747386
2023-02-28T07:55:49.242Z,9.747462
2023-02-28T07:56:49.231Z,9.747478
2023-02-28T07:57:49.255Z,9.747592
2023-02-28T07:58:49.325Z,9.747460
2023-02-28T07:59:49.201Z,9.747471
2023-02-28T08:00:49.234Z,9.747596
2023-02-28T08:01:49.206Z,9.747634
2023-02-28T08:02:49.183Z,9.747602
2023-02-28T08:03:49.219Z,9.747513
2023-02-28T08:04:49.190Z,9.747558
2023-02-28T08:05:49.202Z,9.747621
2023-02-28T08:06:49.145Z,9.747522
2023-02-28T08:07:49.142Z,9.747552
2023-02-28T08:08:49.164Z,9.747501
2023-02-28T08:09:49.137Z,9.747526
2023-02-28T08:10:49.115Z,9.747757
2023-02-28T08:11:49.111Z,9.747668
2023-02-28T08:12:49.109Z,9.747581
2023-02-28T08:13:49.117Z,9.747604
2023-02-28T08:14:49.087Z,9.747541
2023-02-28T08:15:49.097Z,9.747669
2023-02-28T08:16:49.070Z,9.747683
2023-02-28T08:17:49.059Z,9.747519
2023-02-28T08:18:49.092Z,9.747568
2023-02-28T08:19:49.047Z,9.747653
2023-02-28T08:20:49.036Z,9.747712
2023-02-28T08:21:49.081Z,9.747618
2023-02-28T08:22:49.033Z,9.747618
2023-02-28T08:23:49.039Z,9.747596
2023-02-28T08:24:49.007Z,9.747586
2023-02-28T08:25:49.008Z,9.747573
2023-02-28T08:26:48.999Z,9.747659
2023-02-28T08:27:48.986Z,9.747477
2023-02-28T08:28:49.016Z,9.747492
2023-02-28T08:29:48.973Z,9.747502
2023-02-28T08:30:48.955Z,9.747480
2023-02-28T08:31:49.141Z,9.747454
2023-02-28T08:32:48.996Z,9.747534
2023-02-28T08:33:48.965Z,9.747609
2023-02-28T08:34:48.928Z,9.747524
2023-02-28T08:35:48.967Z,9.747439
2023-02-28T08:36:49.027Z,9.747514
2023-02-28T08:37:48.910Z,9.747519
2023-02-28T08:38:48.933Z,9.747478
2023-02-28T08:39:48.893Z,9.747505
2023-02-28T08:40:48.899Z,9.747469
2023-02-28T08:41:53.476Z,9.747602
2023-02-28T08:42:50.871Z,9.747665
2023-02-28T08:43:48.922Z,9.747546
2023-02-28T08:44:48.848Z,9.747497
2023-02-28T08:45:48.861Z,9.747566
2023-02-28T08:46:48.839Z,9.747446
2023-02-28T08:47:48.825Z,9.747551
2023-02-28T08:48:48.860Z,9.747551
2023-02-28T08:49:48.848Z,9.747387
2023-02-28T08:51:04.912Z,9.747252
2023-02-28T08:51:50.794Z,9.747234
2023-02-28T08:52:48.796Z,9.747249
2023-02-28T08:53:48.842Z,9.747267
2023-02-28T08:54:48.772Z,9.747189
2023-02-28T08:55:48.763Z,9.747113
2023-02-28T08:56:48.762Z,9.747237
2023-02-28T08:57:48.792Z,9.747336
2023-02-28T08:58:48.770Z,9.747330
2023-02-28T08:59:48.734Z,9.747355
2023-02-28T09:00:48.769Z,9.747381
2023-02-28T09:01:48.718Z,9.747296
2023-02-28T09:02:48.722Z,9.747154
2023-02-28T09:03:48.781Z,9.747267
2023-02-28T09:04:48.698Z,9.747338
2023-02-28T09:05:48.725Z,9.747304
2023-02-28T09:06:48.681Z,9.747166
2023-02-28T09:07:48.696Z,9.747269
2023-02-28T09:08:48.709Z,9.747326
2023-02-28T09:09:48.668Z,9.747304
2023-02-28T09:10:48.650Z,9.747344
2023-02-28T09:11:48.665Z,9.747373
2023-02-28T09:12:48.659Z,9.747315
2023-02-28T09:13:48.674Z,9.747336
2023-02-28T09:14:48.619Z,9.747299
2023-02-28T09:15:48.617Z,9.747323
2023-02-28T09:16:48.656Z,9.747345
2023-02-28T09:17:48.798Z,9.747408
2023-02-28T09:18:49.625Z,9.747327
2023-02-28T09:19:48.586Z,9.747363
2023-02-28T09:20:48.575Z,9.747440
2023-02-28T09:21:48.579Z,9.747267
2023-02-28T09:22:48.562Z,9.747341
2023-02-28T09:23:48.575Z,9.747316
2023-02-28T09:24:48.543Z,9.747277
2023-02-28T09:25:48.525Z,9.747158
2023-02-28T09:26:56.763Z,9.747310
2023-02-28T09:27:50.521Z,9.747426
2023-02-28T09:28:48.523Z,9.747313
2023-02-28T09:29:48.535Z,9.747235
2023-02-28T09:30:48.505Z,9.747396
2023-02-28T09:31:48.549Z,9.747334
2023-02-28T09:32:50.360Z,9.747612
2023-02-28T09:33:48.478Z,9.747313
2023-02-28T09:34:48.497Z,9.747217
2023-02-28T09:35:48.524Z,9.747106
2023-02-28T09:36:49.128Z,9.747065
2023-02-28T09:37:48.482Z,9.747093
2023-02-28T09:38:49.766Z,9.747143
2023-02-28T09:39:48.497Z,9.747213
2023-02-28T09:40:48.419Z,9.747378
2023-02-28T09:41:48.543Z,9.747446
2023-02-28T09:42:48.419Z,9.747273
2023-02-28T09:43:48.399Z,9.747370
2023-02-28T09:44:48.410Z,9.747321
2023-02-28T09:45:48.408Z,9.747392
2023-02-28T09:46:48.408Z,9.747100
2023-02-28T09:47:48.376Z,9.747355
2023-02-28T09:48:48.388Z,9.747289
2023-02-28T09:49:48.370Z,9.747290
2023-02-28T09:50:48.336Z,9.747329
2023-02-28T09:51:48.759Z,9.747364
2023-02-28T09:52:48.316Z,9.747299
2023-02-28T09:53:53.379Z,9.747308
2023-02-28T09:54:49.335Z,9.747379
2023-02-28T09:55:48.297Z,9.747337
2023-02-28T09:56:48.292Z,9.747319
2023-02-28T09:57:48.299Z,9.747344
2023-02-28T09:58:48.322Z,9.747278
2023-02-28T09:59:48.307Z,9.747337
2023-02-28T10:00:48.267Z,9.747321
2023-02-28T10:01:48.282Z,9.747375
2023-02-28T10:02:48.250Z,9.747318
2023-02-28T10:03:48.240Z,9.747368
2023-02-28T10:04:48.417Z,9.747343
2023-02-28T10:05:48.229Z,9.747324
2023-02-28T10:06:48.228Z,9.747401
2023-02-28T10:07:48.368Z,9.747376
2023-02-28T10:08:48.204Z,9.747433
2023-02-28T10:09:48.217Z,9.747339
2023-02-28T10:10:48.222Z,9.747433
2023-02-28T10:11:48.217Z,9.747420
2023-02-28T10:12:48.174Z,9.747474
2023-02-28T10:13:48.183Z,9.747459
2023-02-28T10:14:48.190Z,9.747412
2023-02-28T10:15:48.161Z,9.747438
2023-02-28T10:16:48.133Z,9.747353
2023-02-28T10:17:55.131Z,9.747396
2023-02-28T10:18:50.120Z,9.747272
2023-02-28T10:19:48.139Z,9.747357
2023-02-28T10:20:48.100Z,9.747352
2023-02-28T10:21:48.097Z,9.747468
2023-02-28T10:22:48.107Z,9.747437
2023-02-28T10:23:48.087Z,9.747376
2023-02-28T10:24:48.100Z,9.747334
2023-02-28T10:25:48.085Z,9.747399
2023-02-28T10:26:48.066Z,9.747302
2023-02-28T10:27:49.052Z,9.747359
2023-02-28T10:28:48.054Z,9.747355
2023-02-28T10:29:48.070Z,9.747382
2023-02-28T10:30:48.044Z,9.747225
2023-02-28T10:31:48.037Z,9.747334
2023-02-28T10:32:48.013Z,9.747428
2023-02-28T10:33:48.010Z,9.747371
2023-02-28T10:34:48.037Z,9.747396
2023-02-28T10:35:48.061Z,9.747319
2023-02-28T10:36:48.014Z,9.747398
2023-02-28T10:37:48.345Z,9.747382
2023-02-28T10:38:48.835Z,9.747433
2023-02-28T10:39:48.013Z,9.747377
2023-02-28T10:40:47.957Z,9.747458
2023-02-28T10:41:47.948Z,9.747424
2023-02-28T10:42:47.944Z,9.747384
2023-02-28T10:43:47.935Z,9.747430
2023-02-28T10:44:47.923Z,9.747279
2023-02-28T10:45:47.942Z,9.747333
2023-02-28T10:46:47.973Z,9.747467
2023-02-28T10:47:47.889Z,9.747407
2023-02-28T10:48:48.957Z,9.747332
2023-02-28T10:49:47.881Z,9.747408
2023-02-28T10:50:47.904Z,9.747341
2023-02-28T10:51:47.873Z,9.747407
2023-02-28T10:52:47.878Z,9.747415
2023-02-28T10:54:00.134Z,9.747437
2023-02-28T10:54:49.877Z,9.747368
2023-02-28T10:55:47.835Z,9.747394
2023-02-28T10:56:47.836Z,9.747242
2023-02-28T10:57:47.826Z,9.747280
2023-02-28T10:58:47.815Z,9.747350
2023-02-28T10:59:47.819Z,9.747366
2023-02-28T11:00:47.832Z,9.747319
2023-02-28T11:01:47.816Z,9.747429
2023-02-28T11:02:47.797Z,9.747379
2023-02-28T11:03:47.775Z,9.747360
2023-02-28T11:04:48.902Z,9.747259
2023-02-28T11:05:48.796Z,9.747434
2023-02-28T11:06:47.749Z,9.747458
2023-02-28T11:07:53.371Z,9.747410
2023-02-28T11:08:49.736Z,9.747370
2023-02-28T11:09:47.733Z,9.747378
2023-02-28T11:10:47.770Z,9.747517
2023-02-28T11:11:47.716Z,9.747567
2023-02-28T11:12:52.865Z,9.747423
2023-02-28T11:13:49.699Z,9.747481
2023-02-28T11:14:47.714Z,9.747512
2023-02-28T11:15:47.781Z,9.747490
2023-02-28T11:16:47.671Z,9.747469
2023-02-28T11:17:47.662Z,9.747365
2023-02-28T11:18:47.659Z,9.747479
2023-02-28T11:19:47.685Z,9.747492
2023-02-28T11:20:47.670Z,9.747378
2023-02-28T11:21:47.635Z,9.747457
2023-02-28T11:22:47.624Z,9.747407
2023-02-28T11:23:47.623Z,9.747495
2023-02-28T11:24:47.616Z,9.747560
2023-02-28T11:25:47.623Z,9.747443
2023-02-28T11:26:47.596Z,9.747398
2023-02-28T11:27:47.611Z,9.747434
2023-02-28T11:28:47.579Z,9.747340
2023-02-28T11:29:47.575Z,9.747459
2023-02-28T11:30:47.594Z,9.747499
2023-02-28T11:31:47.603Z,9.747537
2023-02-28T11:32:47.565Z,9.747596
2023-02-28T11:33:47.562Z,9.747540
2023-02-28T11:34:47.530Z,9.747498
2023-02-28T11:35:47.562Z,9.747706
2023-02-28T11:36:47.513Z,9.747615
2023-02-28T11:37:47.529Z,9.747581
2023-02-28T11:38:47.502Z,9.747686
2023-02-28T11:39:47.502Z,9.747682
2023-02-28T11:40:47.517Z,9.747445
2023-02-28T11:41:47.479Z,9.747465
2023-02-28T11:42:47.473Z,9.747443
2023-02-28T11:43:47.463Z,9.747322
2023-02-28T11:44:47.475Z,9.747490